createdAt,value
2023-01-27T00:02:23.387Z,8.48
2023-01-27T00:05:14.681Z,10.55
2023-01-27T00:08:03.639Z,11.65
2023-01-27T00:11:11.807Z,12.85
2023-01-27T00:13:58.297Z,10.98
2023-01-27T00:16:45.723Z,10.18
2023-01-27T00:19:33.200Z,10.68
2023-01-27T00:22:49.828Z,11.38
2023-01-27T00:25:38.852Z,10.07
2023-01-27T00:28:26.608Z,9.52
2023-01-27T00:31:34.307Z,12.07
2023-01-27T00:34:21.788Z,12.15
2023-01-27T00:37:09.350Z,12.98
2023-01-27T00:39:56.802Z,11.23
2023-01-27T00:42:45.927Z,10.10
2023-01-27T00:45:52.669Z,11.80
2023-01-27T00:48:40.308Z,11.68
2023-01-27T00:51:28.307Z,11.57
2023-01-27T00:54:16.034Z,10.93
2023-01-27T00:57:04.417Z,11.32
2023-01-27T00:59:53.334Z,12.57
2023-01-27T01:02:41.527Z,10.82
2023-01-27T01:05:29.570Z,11.70
2023-01-27T01:08:17.343Z,13.27
2023-01-27T01:11:07.049Z,15.00
2023-01-27T01:13:56.564Z,13.38
2023-01-27T01:16:45.649Z,11.35
2023-01-27T01:19:33.765Z,11.88
2023-01-27T01:22:21.510Z,13.50
2023-01-27T01:25:09.950Z,13.10
2023-01-27T01:27:57.739Z,14.25
2023-01-27T01:30:45.393Z,12.80
2023-01-27T01:33:34.412Z,14.05
2023-01-27T01:36:22.858Z,13.15
2023-01-27T01:39:10.905Z,11.50
2023-01-27T01:41:59.380Z,14.63
2023-01-27T01:44:47.103Z,14.15
2023-01-27T01:47:34.525Z,13.13
2023-01-27T01:50:23.637Z,18.25
2023-01-27T01:53:13.067Z,13.43
2023-01-27T01:56:07.938Z,13.68
2023-01-27T01:59:03.142Z,13.98
2023-01-27T02:01:53.833Z,13.55
2023-01-27T02:04:47.498Z,14.68
2023-01-27T02:07:51.292Z,16.05
2023-01-27T02:11:18.936Z,14.02
2023-01-27T02:14:06.510Z,15.68
2023-01-27T02:16:54.626Z,16.50
2023-01-27T02:19:58.347Z,15.55
2023-01-27T02:23:00.781Z,15.10
2023-01-27T02:25:58.788Z,17.92
2023-01-27T02:28:47.038Z,15.27
2023-01-27T02:31:35.163Z,16.10
2023-01-27T02:34:35.744Z,15.82
2023-01-27T02:37:25.216Z,16.63
2023-01-27T02:40:16.016Z,19.13
2023-01-27T02:43:06.545Z,16.77
2023-01-27T02:45:54.000Z,14.38
2023-01-27T02:48:41.629Z,17.00
2023-01-27T02:51:29.684Z,15.48
2023-01-27T02:54:17.274Z,15.80
2023-01-27T02:57:04.917Z,15.20
2023-01-27T02:59:53.737Z,16.08
2023-01-27T03:02:41.443Z,17.65
2023-01-27T03:05:28.899Z,16.08
2023-01-27T03:08:16.938Z,17.50
2023-01-27T03:11:04.329Z,20.60
2023-01-27T03:13:53.550Z,18.02
2023-01-27T03:16:59.700Z,18.90
2023-01-27T03:19:53.292Z,16.65
2023-01-27T03:22:42.761Z,16.67
2023-01-27T03:25:30.438Z,20.30
2023-01-27T03:28:18.314Z,16.45
2023-01-27T03:31:08.853Z,18.48
2023-01-27T03:33:57.802Z,12.63
2023-01-27T03:37:02.873Z,18.70
2023-01-27T03:40:08.413Z,18.73
2023-01-27T03:43:13.427Z,19.40
2023-01-27T03:46:20.250Z,16.58
2023-01-27T03:49:09.375Z,17.55
2023-01-27T03:51:57.102Z,16.02
2023-01-27T03:54:44.637Z,16.45
2023-01-27T03:57:32.088Z,16.10
2023-01-27T04:00:21.729Z,16.70
2023-01-27T04:03:27.338Z,16.52
2023-01-27T04:06:37.191Z,13.23
2023-01-27T04:09:27.853Z,14.30
2023-01-27T04:12:15.569Z,12.70
2023-01-27T04:15:03.131Z,19.13
2023-01-27T04:17:50.773Z,14.60
2023-01-27T04:20:38.543Z,15.60
2023-01-27T04:23:27.381Z,14.35
2023-01-27T04:26:15.178Z,14.32
2023-01-27T04:29:05.255Z,13.43
2023-01-27T04:31:53.247Z,14.35
2023-01-27T04:34:43.198Z,12.25
2023-01-27T04:37:30.754Z,11.20
2023-01-27T04:40:20.175Z,14.25
2023-01-27T04:43:07.817Z,10.98
2023-01-27T04:45:55.320Z,12.20
2023-01-27T04:48:43.060Z,13.77
2023-01-27T04:51:30.733Z,10.90
2023-01-27T04:54:18.291Z,11.68
2023-01-27T04:57:07.363Z,12.75
2023-01-27T04:59:54.981Z,13.88
2023-01-27T05:02:42.743Z,12.07
2023-01-27T05:05:30.236Z,13.50
2023-01-27T05:08:17.862Z,12.40
2023-01-27T05:11:08.238Z,13.90
2023-01-27T05:14:00.336Z,11.60
2023-01-27T05:16:48.142Z,12.50
2023-01-27T05:19:35.472Z,12.18
2023-01-27T05:22:22.891Z,12.88
2023-01-27T05:25:11.570Z,11.60
2023-01-27T05:27:59.456Z,13.00
2023-01-27T05:30:48.330Z,12.63
2023-01-27T05:33:36.308Z,12.20
2023-01-27T05:36:27.055Z,13.38
2023-01-27T05:39:15.145Z,10.88
2023-01-27T05:42:02.764Z,13.40
2023-01-27T05:44:50.661Z,11.45
2023-01-27T05:47:39.606Z,13.57
2023-01-27T05:50:28.028Z,14.88
2023-01-27T05:53:18.618Z,11.20
2023-01-27T05:56:10.288Z,12.13
2023-01-27T05:58:59.344Z,13.32
2023-01-27T06:01:46.652Z,14.88
2023-01-27T06:04:35.645Z,12.00
2023-01-27T06:07:23.301Z,13.02
2023-01-27T06:10:12.630Z,10.90
2023-01-27T06:13:00.753Z,12.18
2023-01-27T06:15:49.167Z,12.75
2023-01-27T06:18:38.111Z,11.45
2023-01-27T06:21:26.958Z,13.23
2023-01-27T06:24:19.859Z,10.65
2023-01-27T06:27:07.535Z,15.95
2023-01-27T06:29:54.932Z,12.30
2023-01-27T06:32:42.512Z,13.73
2023-01-27T06:35:31.021Z,14.82
2023-01-27T06:38:20.208Z,14.98
2023-01-27T06:41:08.507Z,13.50
2023-01-27T06:43:56.581Z,14.77
2023-01-27T06:46:44.561Z,12.60
2023-01-27T06:49:32.327Z,13.63
2023-01-27T06:52:20.379Z,11.43
2023-01-27T06:55:10.445Z,12.23
2023-01-27T06:57:58.293Z,15.40
2023-01-27T07:00:46.302Z,14.25
2023-01-27T07:06:20.573Z,12.00
2023-01-27T07:09:08.069Z,14.13
2023-01-27T07:11:57.128Z,13.60
2023-01-27T07:14:44.626Z,18.40
2023-01-27T07:17:32.331Z,13.38
2023-01-27T07:20:20.657Z,11.98
2023-01-27T07:23:08.894Z,14.25
2023-01-27T07:25:56.332Z,13.93
2023-01-27T07:28:45.014Z,15.43
2023-01-27T07:31:34.613Z,14.27
2023-01-27T07:34:23.845Z,13.30
2023-01-27T07:37:12.306Z,12.52
2023-01-27T07:40:00.013Z,14.73
2023-01-27T07:42:47.475Z,15.30
2023-01-27T07:45:37.004Z,16.23
2023-01-27T07:48:25.202Z,15.23
2023-01-27T07:51:14.521Z,13.77
2023-01-27T07:54:02.309Z,13.57
2023-01-27T07:56:49.745Z,16.15
2023-01-27T07:59:37.380Z,13.73
2023-01-27T08:02:28.487Z,14.98
2023-01-27T08:05:16.397Z,16.45
2023-01-27T08:08:04.825Z,14.32
2023-01-27T08:10:54.450Z,17.17
2023-01-27T08:13:43.475Z,13.98
2023-01-27T08:16:31.562Z,12.48
2023-01-27T08:19:21.052Z,16.70
2023-01-27T08:22:08.795Z,13.80
2023-01-27T08:24:56.376Z,11.48
2023-01-27T08:27:44.375Z,13.02
2023-01-27T08:30:32.404Z,15.45
2023-01-27T08:33:20.577Z,13.55
2023-01-27T08:36:13.686Z,14.73
2023-01-27T08:39:01.235Z,12.82
2023-01-27T08:41:48.770Z,14.35
2023-01-27T08:44:36.540Z,13.05
2023-01-27T08:47:24.089Z,12.30
2023-01-27T08:50:13.268Z,13.38
2023-01-27T08:53:04.252Z,14.55
2023-01-27T08:55:54.202Z,13.60
2023-01-27T08:58:47.344Z,14.55
2023-01-27T09:01:34.830Z,13.38
2023-01-27T09:04:23.668Z,14.00
2023-01-27T09:07:11.699Z,12.85
2023-01-27T09:10:13.632Z,12.38
2023-01-27T09:13:02.072Z,12.43
2023-01-27T09:15:52.646Z,13.10
2023-01-27T09:18:41.154Z,11.40
2023-01-27T09:21:31.793Z,12.88
2023-01-27T09:24:21.560Z,15.82
2023-01-27T09:27:10.602Z,10.80
2023-01-27T09:29:58.183Z,10.75
2023-01-27T09:32:45.906Z,11.13
2023-01-27T09:35:42.220Z,12.48
2023-01-27T09:38:35.859Z,10.65
2023-01-27T09:41:47.856Z,11.65
2023-01-27T09:45:21.568Z,14.15
2023-01-27T09:48:29.008Z,10.85
2023-01-27T09:51:30.881Z,9.68
2023-01-27T09:54:42.806Z,12.52
2023-01-27T09:57:43.311Z,11.65
2023-01-27T10:00:59.232Z,12.95
2023-01-27T10:04:10.470Z,10.93
2023-01-27T10:07:39.925Z,14.15
2023-01-27T10:10:47.693Z,13.65
2023-01-27T10:13:50.059Z,14.02
2023-01-27T10:16:59.887Z,11.93
2023-01-27T10:20:10.132Z,11.82
2023-01-27T10:23:21.617Z,10.05
2023-01-27T10:26:24.227Z,12.20
2023-01-27T10:29:22.649Z,12.63
2023-01-27T10:32:25.104Z,10.00
2023-01-27T10:35:20.916Z,11.07
2023-01-27T10:38:20.979Z,13.90
2023-01-27T10:41:26.605Z,11.57
2023-01-27T10:44:39.419Z,12.43
2023-01-27T10:47:52.296Z,7.30
2023-01-27T10:50:46.889Z,13.83
2023-01-27T10:53:48.934Z,10.93
2023-01-27T10:56:45.898Z,12.73
2023-01-27T10:59:52.244Z,11.15
2023-01-27T11:03:08.471Z,12.07
2023-01-27T11:06:08.351Z,12.15
2023-01-27T11:09:09.472Z,11.48
2023-01-27T11:12:02.763Z,10.15
2023-01-27T11:14:53.498Z,8.88
2023-01-27T11:17:49.928Z,8.70
2023-01-27T11:20:45.796Z,9.77
2023-01-27T11:23:40.910Z,11.25
2023-01-27T11:26:40.452Z,8.35
2023-01-27T11:29:39.370Z,9.52
2023-01-27T11:32:45.564Z,11.43
2023-01-27T11:35:33.507Z,8.07
2023-01-27T11:38:24.417Z,11.57
2023-01-27T11:41:14.526Z,10.15
2023-01-27T11:44:07.813Z,9.07
2023-01-27T11:46:57.295Z,7.47
2023-01-27T11:49:52.263Z,8.48
2023-01-27T11:52:39.602Z,8.20
2023-01-27T11:55:38.246Z,10.38
2023-01-27T11:58:32.316Z,8.57
2023-01-27T12:01:29.715Z,7.35
2023-01-27T12:04:26.577Z,8.80
2023-01-27T12:07:22.213Z,7.80
2023-01-27T12:10:29.330Z,6.80
2023-01-27T12:13:19.921Z,8.18
2023-01-27T12:16:08.873Z,6.50
2023-01-27T12:19:03.636Z,9.27
2023-01-27T12:21:58.871Z,8.98
2023-01-27T12:24:53.757Z,9.02
2023-01-27T12:27:53.002Z,9.73
2023-01-27T12:30:41.295Z,7.75
2023-01-27T12:33:34.242Z,9.10
2023-01-27T12:36:23.582Z,9.35
2023-01-27T12:39:45.266Z,10.00
2023-01-27T12:42:39.439Z,8.30
2023-01-27T12:45:31.947Z,9.07
2023-01-27T12:48:22.822Z,8.60
2023-01-27T12:51:18.263Z,9.68
2023-01-27T12:54:18.487Z,6.22
2023-01-27T12:57:14.262Z,8.70
2023-01-27T13:00:02.601Z,8.38
2023-01-27T13:02:51.968Z,9.32
2023-01-27T13:05:43.776Z,10.20
2023-01-27T13:08:34.865Z,8.60
2023-01-27T13:11:37.264Z,9.52
2023-01-27T13:14:28.923Z,9.30
2023-01-27T13:17:40.148Z,7.72
2023-01-27T13:20:35.420Z,10.77
2023-01-27T13:23:27.512Z,8.45
2023-01-27T13:26:22.655Z,9.65
2023-01-27T13:29:20.203Z,6.60
2023-01-27T13:32:19.300Z,7.15
2023-01-27T13:35:20.699Z,7.57
2023-01-27T13:38:22.885Z,6.38
2023-01-27T13:41:24.347Z,6.55
2023-01-27T13:44:27.660Z,7.70
2023-01-27T13:47:21.543Z,7.47
2023-01-27T13:50:25.938Z,7.20
2023-01-27T13:53:20.037Z,7.50
2023-01-27T13:56:29.505Z,8.13
2023-01-27T13:59:39.756Z,6.78
2023-01-27T14:03:18.471Z,5.90
2023-01-27T14:06:35.532Z,7.07
2023-01-27T14:09:50.657Z,6.28
2023-01-27T14:12:59.723Z,6.53
2023-01-27T14:16:02.244Z,8.60
2023-01-27T14:18:58.319Z,7.38
2023-01-27T14:21:54.886Z,8.35
2023-01-27T14:24:54.066Z,7.18
2023-01-27T14:27:47.785Z,9.65
2023-01-27T14:30:43.228Z,6.80
2023-01-27T14:34:00.756Z,6.90
2023-01-27T14:37:00.971Z,7.15
2023-01-27T14:40:09.054Z,6.75
2023-01-27T14:43:19.703Z,6.57
2023-01-27T14:46:22.191Z,6.95
2023-01-27T14:49:24.763Z,6.93
2023-01-27T14:52:31.721Z,7.37
2023-01-27T14:55:35.818Z,7.22
2023-01-27T14:58:41.952Z,7.22
2023-01-27T15:01:42.762Z,6.43
2023-01-27T15:04:43.654Z,6.35
2023-01-27T15:07:47.816Z,6.93
2023-01-27T15:11:00.236Z,6.82
2023-01-27T15:14:10.848Z,5.80
2023-01-27T15:17:20.332Z,5.95
2023-01-27T15:20:48.485Z,4.93
2023-01-27T15:24:11.191Z,6.75
2023-01-27T15:27:02.395Z,6.50
2023-01-27T15:29:50.651Z,6.00
2023-01-27T15:32:39.274Z,7.53
2023-01-27T15:35:41.452Z,6.68
2023-01-27T15:38:35.217Z,9.88
2023-01-27T15:41:23.069Z,8.77
2023-01-27T15:44:20.242Z,7.10
2023-01-27T15:47:14.060Z,7.28
2023-01-27T15:50:14.030Z,7.72
2023-01-27T15:53:12.590Z,7.38
2023-01-27T15:56:03.531Z,7.93
2023-01-27T15:59:04.664Z,8.07
2023-01-27T16:02:11.387Z,8.35
2023-01-27T16:05:17.102Z,9.63
2023-01-27T16:08:12.376Z,9.43
2023-01-27T16:11:39.281Z,8.55
2023-01-27T16:14:47.330Z,9.00
2023-01-27T16:18:00.990Z,11.00
2023-01-27T16:20:56.478Z,11.82
2023-01-27T16:23:57.342Z,10.02
2023-01-27T16:26:53.259Z,11.98
2023-01-27T16:29:48.599Z,9.98
2023-01-27T16:32:43.695Z,12.45
2023-01-27T16:35:40.552Z,10.35
2023-01-27T16:38:32.690Z,11.07
2023-01-27T16:41:26.841Z,10.68
2023-01-27T16:44:21.457Z,13.60
2023-01-27T16:47:24.474Z,14.38
2023-01-27T16:50:37.003Z,13.25
2023-01-27T16:53:26.728Z,12.10
2023-01-27T16:56:24.323Z,10.45
2023-01-27T16:59:30.588Z,10.75
2023-01-27T17:02:25.177Z,12.30
2023-01-27T17:05:19.257Z,18.42
2023-01-27T17:08:19.767Z,13.57
2023-01-27T17:11:17.612Z,13.73
2023-01-27T17:14:28.666Z,12.82
2023-01-27T17:17:22.111Z,14.60
2023-01-27T17:20:23.165Z,16.75
2023-01-27T17:23:28.379Z,16.13
2023-01-27T17:26:20.429Z,16.92
2023-01-27T17:29:08.044Z,14.90
2023-01-27T17:31:56.010Z,15.50
2023-01-27T17:34:43.971Z,18.77
2023-01-27T17:37:33.702Z,25.25
2023-01-27T17:40:24.193Z,15.02
2023-01-27T17:43:31.813Z,14.70
2023-01-27T17:46:23.244Z,14.35
2023-01-27T17:49:17.519Z,14.85
2023-01-27T17:52:12.090Z,12.30
2023-01-27T17:55:01.757Z,17.08
2023-01-27T17:57:55.402Z,13.60
2023-01-27T18:00:46.849Z,18.27
2023-01-27T18:03:37.057Z,13.63
2023-01-27T18:06:29.558Z,10.68
2023-01-27T18:09:23.077Z,10.98
2023-01-27T18:12:32.037Z,14.73
2023-01-27T18:15:43.196Z,12.57
2023-01-27T18:18:33.486Z,13.82
2023-01-27T18:21:25.598Z,13.50
2023-01-27T18:24:21.947Z,11.20
2023-01-27T18:27:31.039Z,10.18
2023-01-27T18:30:21.371Z,14.77
2023-01-27T18:33:14.284Z,14.55
2023-01-27T18:36:02.233Z,12.93
2023-01-27T18:38:51.295Z,11.18
2023-01-27T18:41:48.610Z,10.00
2023-01-27T18:44:39.505Z,9.40
2023-01-27T18:47:34.696Z,8.80
2023-01-27T18:50:26.320Z,8.05
2023-01-27T18:53:17.819Z,8.27
2023-01-27T18:56:05.507Z,6.82
2023-01-27T18:58:54.167Z,8.60
2023-01-27T19:01:42.157Z,8.77
2023-01-27T19:04:30.164Z,10.85
2023-01-27T19:07:20.070Z,7.43
2023-01-27T19:10:16.687Z,9.60
2023-01-27T19:13:05.805Z,10.02
2023-01-27T19:15:55.893Z,6.70
2023-01-27T19:18:45.601Z,8.23
2023-01-27T19:21:33.174Z,8.35
2023-01-27T19:24:21.985Z,7.68
2023-01-27T19:27:14.195Z,7.00
2023-01-27T19:30:25.830Z,8.00
2023-01-27T19:33:25.404Z,5.95
2023-01-27T19:36:22.514Z,8.07
2023-01-27T19:39:16.906Z,8.07
2023-01-27T19:42:07.981Z,7.15
2023-01-27T19:44:55.319Z,6.20
2023-01-27T19:47:44.825Z,7.80
2023-01-27T19:50:32.794Z,7.43
2023-01-27T19:53:22.188Z,6.32
2023-01-27T19:56:17.137Z,5.40
2023-01-27T19:59:06.007Z,7.00
2023-01-27T20:01:53.982Z,6.20
2023-01-27T20:04:41.908Z,6.22
2023-01-27T20:07:31.375Z,5.95
2023-01-27T20:10:25.743Z,6.68
2023-01-27T20:13:17.309Z,6.65
2023-01-27T20:16:07.228Z,6.40
2023-01-27T20:18:56.845Z,6.32
2023-01-27T20:21:45.953Z,4.75
2023-01-27T20:24:33.878Z,8.75
2023-01-27T20:27:21.283Z,5.68
2023-01-27T20:30:14.967Z,5.20
2023-01-27T20:33:05.477Z,6.13
2023-01-27T20:35:53.271Z,6.40
2023-01-27T20:38:42.142Z,7.32
2023-01-27T20:41:29.728Z,6.57
2023-01-27T20:44:18.263Z,7.93
2023-01-27T20:47:06.054Z,6.45
2023-01-27T20:49:55.094Z,6.68
2023-01-27T20:52:43.101Z,7.55
2023-01-27T20:55:31.756Z,5.38
2023-01-27T20:58:19.452Z,5.82
2023-01-27T21:01:09.269Z,6.95
2023-01-27T21:03:56.727Z,5.13
2023-01-27T21:06:45.652Z,5.50
2023-01-27T21:09:33.574Z,6.30
2023-01-27T21:12:22.176Z,4.80
2023-01-27T21:15:12.250Z,5.28
2023-01-27T21:18:00.830Z,6.22
2023-01-27T21:20:50.025Z,4.72
2023-01-27T21:23:38.965Z,5.00
2023-01-27T21:26:27.097Z,5.00
2023-01-27T21:29:15.242Z,4.63
2023-01-27T21:32:07.464Z,7.28
2023-01-27T21:34:56.514Z,6.15
2023-01-27T21:37:44.787Z,4.80
2023-01-27T21:40:34.667Z,4.97
2023-01-27T21:43:40.153Z,6.28
2023-01-27T21:46:27.786Z,6.13
2023-01-27T21:49:15.863Z,4.85
2023-01-27T21:52:04.091Z,5.70
2023-01-27T21:54:52.282Z,4.28
2023-01-27T21:57:41.805Z,5.55
2023-01-27T22:00:30.341Z,5.28
2023-01-27T22:03:18.361Z,5.80
2023-01-27T22:06:07.153Z,5.63
2023-01-27T22:08:54.938Z,5.70
2023-01-27T22:11:43.982Z,7.07
2023-01-27T22:14:33.851Z,9.52
2023-01-27T22:17:21.663Z,9.45
2023-01-27T22:20:13.835Z,9.32
2023-01-27T22:23:01.730Z,13.63
2023-01-27T22:25:50.572Z,14.73
2023-01-27T22:28:38.563Z,16.75
2023-01-27T22:31:27.917Z,15.73
2023-01-27T22:34:16.042Z,18.25
2023-01-27T22:37:03.983Z,17.08
2023-01-27T22:39:51.892Z,19.40
2023-01-27T22:42:40.736Z,21.40
2023-01-27T22:45:28.899Z,22.08
2023-01-27T22:48:18.051Z,24.45
2023-01-27T22:51:06.699Z,22.92
2023-01-27T22:53:54.679Z,15.90
2023-01-27T22:56:43.190Z,15.23
2023-01-27T22:59:31.256Z,18.33
2023-01-27T23:02:19.140Z,13.27
2023-01-27T23:05:09.473Z,14.40
2023-01-27T23:07:57.131Z,13.07
2023-01-27T23:10:45.038Z,12.13
2023-01-27T23:13:34.210Z,10.98
2023-01-27T23:16:23.390Z,11.10
2023-01-27T23:19:14.627Z,12.27
2023-01-27T23:22:03.671Z,12.82
2023-01-27T23:24:51.540Z,7.65
2023-01-27T23:27:39.893Z,7.30
2023-01-27T23:30:27.886Z,8.43
2023-01-27T23:33:17.165Z,9.63
2023-01-27T23:36:07.131Z,9.20
2023-01-27T23:38:56.746Z,9.23
2023-01-27T23:41:44.487Z,9.95
2023-01-27T23:44:32.418Z,11.65
2023-01-27T23:47:20.361Z,6.95
2023-01-27T23:50:09.641Z,8.38
2023-01-27T23:52:57.783Z,9.85
2023-01-27T23:55:57.057Z,7.85
2023-01-27T23:58:45.254Z,8.38
